createdAt,value
2022-09-05T00:00:11.911Z,99.90
2022-09-05T00:03:00.676Z,99.90
2022-09-05T00:05:51.054Z,99.90
2022-09-05T00:08:52.830Z,99.90
2022-09-05T00:12:10.498Z,99.90
2022-09-05T00:15:20.749Z,99.90
2022-09-05T00:24:17.710Z,99.90
2022-09-05T00:24:28.939Z,99.90
2022-09-05T00:25:14.899Z,99.90
2022-09-05T00:27:57.571Z,99.90
2022-09-05T00:31:07.224Z,99.90
2022-09-05T00:33:28.292Z,99.90
2022-09-05T00:36:25.488Z,99.90
2022-09-05T00:39:13.350Z,99.90
2022-09-05T00:41:42.246Z,99.90
2022-09-05T00:44:13.257Z,99.90
2022-09-05T00:46:53.260Z,99.90
2022-09-05T00:50:08.741Z,99.90
2022-09-05T00:53:07.253Z,99.90
2022-09-05T00:56:06.603Z,99.90
2022-09-05T00:58:59.997Z,99.90
2022-09-05T01:01:47.859Z,99.90
2022-09-05T01:05:00.572Z,99.90
2022-09-05T01:08:06.317Z,99.90
2022-09-05T01:11:12.843Z,99.90
2022-09-05T01:14:16.656Z,99.90
2022-09-05T01:17:06.550Z,99.90
2022-09-05T01:20:41.365Z,99.90
2022-09-05T01:23:41.898Z,99.90
2022-09-05T01:26:29.796Z,99.90
2022-09-05T01:29:18.230Z,99.90
2022-09-05T01:32:27.233Z,99.90
2022-09-05T01:35:28.094Z,99.90
2022-09-05T01:38:05.501Z,99.90
2022-09-05T01:41:21.640Z,99.90
2022-09-05T01:44:31.302Z,99.90
2022-09-05T01:47:29.419Z,99.90
2022-09-05T01:50:39.791Z,99.90
2022-09-05T01:53:26.027Z,99.90
2022-09-05T01:56:15.131Z,99.90
2022-09-05T01:59:05.515Z,99.90
2022-09-05T02:01:55.445Z,99.90
2022-09-05T02:04:57.573Z,99.90
2022-09-05T02:07:48.937Z,99.90
2022-09-05T02:10:40.101Z,99.90
2022-09-05T02:13:34.105Z,99.90
2022-09-05T02:16:16.060Z,99.90
2022-09-05T02:19:08.193Z,99.90
2022-09-05T02:21:55.646Z,99.90
2022-09-05T02:24:36.823Z,99.90
2022-09-05T02:27:31.614Z,99.90
2022-09-05T02:30:24.572Z,99.90
2022-09-05T02:33:06.538Z,99.90
2022-09-05T02:35:51.855Z,99.90
2022-09-05T02:45:00.139Z,99.90
2022-09-05T02:45:19.430Z,99.90
2022-09-05T02:45:34.965Z,99.90
2022-09-05T02:48:16.301Z,99.90
2022-09-05T02:56:42.507Z,99.90
2022-09-05T02:57:38.558Z,99.90
2022-09-05T02:57:39.945Z,99.90
2022-09-05T03:00:38.382Z,99.90
2022-09-05T03:03:28.810Z,99.90
2022-09-05T03:06:40.789Z,99.90
2022-09-05T03:09:43.095Z,99.90
2022-09-05T03:12:52.508Z,99.90
2022-09-05T03:15:56.551Z,99.90
2022-09-05T03:18:48.097Z,99.90
2022-09-05T03:22:08.050Z,99.90
2022-09-05T03:24:56.028Z,99.90
2022-09-05T03:28:35.483Z,99.90
2022-09-05T03:31:41.082Z,99.90
2022-09-05T03:34:49.674Z,99.90
2022-09-05T03:37:50.513Z,99.90
2022-09-05T03:41:05.897Z,99.90
2022-09-05T03:44:17.564Z,99.90
2022-09-05T03:47:01.910Z,99.90
2022-09-05T03:54:25.887Z,99.90
2022-09-05T03:57:12.691Z,99.90
2022-09-05T03:57:16.930Z,99.90
2022-09-05T04:00:07.503Z,99.90
2022-09-05T04:08:10.687Z,99.90
2022-09-05T04:17:43.722Z,99.90
2022-09-05T04:20:42.683Z,99.90
2022-09-05T04:23:44.491Z,99.90
2022-09-05T04:26:30.247Z,99.90
2022-09-05T04:29:20.091Z,99.90
2022-09-05T04:31:48.326Z,99.90
2022-09-05T04:34:51.282Z,99.90
2022-09-05T04:38:20.354Z,99.90
2022-09-05T04:41:16.297Z,99.90
2022-09-05T04:44:01.729Z,99.90
2022-09-05T04:46:47.408Z,99.90
2022-09-05T04:49:39.294Z,99.90
2022-09-05T04:52:55.142Z,99.90
2022-09-05T04:55:52.365Z,99.90
2022-09-05T05:00:24.407Z,99.90
2022-09-05T05:06:04.864Z,99.90
2022-09-05T05:06:14.074Z,99.90
2022-09-05T05:07:32.461Z,99.90
2022-09-05T05:14:09.247Z,99.90
2022-09-05T05:18:07.956Z,99.90
2022-09-05T05:18:08.630Z,99.90
2022-09-05T05:19:25.930Z,99.90
2022-09-05T05:21:58.821Z,99.90
2022-09-05T05:24:34.049Z,99.90
2022-09-05T05:27:21.451Z,99.90
2022-09-05T05:30:04.703Z,99.90
2022-09-05T05:32:46.053Z,99.90
2022-09-05T05:35:33.717Z,99.90
2022-09-05T05:38:17.451Z,99.90
2022-09-05T05:41:04.789Z,99.90
2022-09-05T05:43:46.650Z,99.90
2022-09-05T05:46:26.655Z,99.90
2022-09-05T05:49:14.583Z,99.90
2022-09-05T05:52:18.768Z,99.90
2022-09-05T05:55:50.586Z,99.90
2022-09-05T05:58:48.681Z,99.90
2022-09-05T06:01:38.751Z,99.90
2022-09-05T06:05:03.750Z,99.90
2022-09-05T06:11:20.507Z,99.90
2022-09-05T06:15:06.286Z,99.90
2022-09-05T06:15:14.155Z,99.90
2022-09-05T06:18:45.653Z,99.90
2022-09-05T06:22:10.530Z,99.90
2022-09-05T06:24:58.801Z,99.90
2022-09-05T06:32:00.298Z,99.90
2022-09-05T06:35:01.259Z,99.90
2022-09-05T06:37:52.959Z,99.90
2022-09-05T06:41:09.218Z,99.90
2022-09-05T06:44:03.687Z,99.90
2022-09-05T06:46:55.041Z,99.90
2022-09-05T06:49:45.412Z,99.90
2022-09-05T06:52:49.511Z,99.90
2022-09-05T06:55:35.612Z,99.90
2022-09-05T06:58:55.759Z,99.90
2022-09-05T07:01:50.053Z,99.90
2022-09-05T07:05:24.120Z,99.90
2022-09-05T07:07:51.035Z,99.90
2022-09-05T07:10:38.897Z,99.90
2022-09-05T07:13:24.081Z,99.90
2022-09-05T07:16:36.981Z,99.90
2022-09-05T07:19:33.962Z,99.90
2022-09-05T07:22:46.722Z,99.80
2022-09-05T07:25:19.008Z,99.90
2022-09-05T07:28:28.638Z,99.90
2022-09-05T07:31:10.500Z,99.90
2022-09-05T07:33:40.093Z,99.90
2022-09-05T07:36:14.201Z,99.90
2022-09-05T07:38:55.239Z,99.90
2022-09-05T07:41:30.641Z,99.90
2022-09-05T07:44:38.777Z,99.90
2022-09-05T07:47:33.225Z,99.70
2022-09-05T07:51:27.950Z,99.90
2022-09-05T07:56:56.380Z,99.90
2022-09-05T07:57:07.807Z,99.90
2022-09-05T07:58:54.559Z,99.90
2022-09-05T08:01:22.937Z,99.90
2022-09-05T08:03:56.252Z,99.90
2022-09-05T08:06:47.981Z,99.90
2022-09-05T08:10:06.050Z,99.90
2022-09-05T08:13:19.991Z,99.90
2022-09-05T08:15:49.435Z,99.20
2022-09-05T08:18:42.500Z,98.70
2022-09-05T08:21:35.659Z,98.20
2022-09-05T08:24:43.966Z,97.00
2022-09-05T08:28:11.105Z,97.20
2022-09-05T08:31:04.313Z,95.90
2022-09-05T08:33:48.914Z,95.20
2022-09-05T08:36:51.689Z,94.80
2022-09-05T08:39:23.475Z,94.20
2022-09-05T08:42:06.250Z,94.00
2022-09-05T08:46:39.202Z,93.60
2022-09-05T08:48:35.834Z,94.10
2022-09-05T08:51:19.036Z,94.10
2022-09-05T08:54:23.665Z,94.30
2022-09-05T08:56:53.375Z,94.40
2022-09-05T09:00:19.681Z,94.90
2022-09-05T09:03:22.932Z,93.70
2022-09-05T09:06:14.217Z,93.50
2022-09-05T09:09:07.607Z,93.10
2022-09-05T09:11:44.782Z,92.40
2022-09-05T09:14:33.145Z,92.20
2022-09-05T09:17:24.081Z,91.60
2022-09-05T09:20:23.249Z,92.10
2022-09-05T09:23:32.130Z,91.60
2022-09-05T09:26:19.877Z,90.70
2022-09-05T09:29:08.189Z,91.60
2022-09-05T09:31:59.633Z,91.80
2022-09-05T09:34:26.513Z,91.70
2022-09-05T09:37:08.564Z,92.10
2022-09-05T09:40:22.687Z,91.70
2022-09-05T09:43:29.620Z,91.60
2022-09-05T09:46:41.330Z,92.30
2022-09-05T09:49:41.304Z,92.00
2022-09-05T09:52:20.808Z,92.40
2022-09-05T09:55:40.833Z,92.20
2022-09-05T09:58:20.920Z,92.50
2022-09-05T10:01:35.975Z,92.80
2022-09-05T10:10:39.463Z,92.40
2022-09-05T10:11:07.860Z,92.50
2022-09-05T10:11:55.183Z,92.30
2022-09-05T10:27:39.165Z,91.30
2022-09-05T10:31:34.494Z,91.00
2022-09-05T10:35:12.998Z,91.80
2022-09-05T10:36:54.867Z,92.10
2022-09-05T10:39:27.883Z,92.40
2022-09-05T10:42:03.472Z,92.80
2022-09-05T10:44:43.141Z,92.00
2022-09-05T10:47:18.900Z,92.50
2022-09-05T10:49:55.783Z,92.80
2022-09-05T10:52:40.169Z,92.50
2022-09-05T10:55:28.437Z,92.20
2022-09-05T10:58:22.097Z,92.40
2022-09-05T11:02:29.399Z,92.50
2022-09-05T11:04:59.758Z,91.70
2022-09-05T11:07:54.815Z,92.40
2022-09-05T11:10:37.277Z,92.30
2022-09-05T11:13:11.396Z,92.40
2022-09-05T11:16:31.993Z,92.80
2022-09-05T11:19:39.545Z,93.40
2022-09-05T11:22:22.529Z,93.10
2022-09-05T11:24:58.425Z,93.50
2022-09-05T11:27:28.041Z,93.60
2022-09-05T11:30:07.821Z,93.90
2022-09-05T11:38:55.119Z,93.80
2022-09-05T11:39:57.095Z,93.20
2022-09-05T11:40:31.455Z,93.50
2022-09-05T11:43:12.548Z,93.80
2022-09-05T11:46:29.419Z,93.90
2022-09-05T11:49:26.807Z,93.80
2022-09-05T11:52:05.753Z,94.30
2022-09-05T11:55:47.499Z,94.30
2022-09-05T11:58:43.874Z,93.60
2022-09-05T12:01:56.135Z,93.10
2022-09-05T12:05:50.018Z,93.00
2022-09-05T12:08:09.391Z,92.70
2022-09-05T12:11:30.041Z,93.00
2022-09-05T12:14:25.844Z,92.10
2022-09-05T12:17:06.439Z,92.20
2022-09-05T12:20:02.076Z,91.30
2022-09-05T12:22:41.577Z,91.40
2022-09-05T12:27:39.429Z,91.30
2022-09-05T12:29:28.902Z,91.50
2022-09-05T12:33:30.260Z,91.30
2022-09-05T12:36:11.064Z,91.50
2022-09-05T12:40:54.997Z,91.20
2022-09-05T12:41:43.499Z,91.40
2022-09-05T12:44:39.522Z,90.30
2022-09-05T12:47:21.205Z,88.70
2022-09-05T12:50:14.634Z,89.40
2022-09-05T12:52:50.857Z,88.40
2022-09-05T12:55:17.701Z,87.20
2022-09-05T13:00:54.080Z,86.80
2022-09-05T13:03:13.605Z,86.70
2022-09-05T13:03:53.479Z,86.30
2022-09-05T13:06:36.530Z,86.00
2022-09-05T13:09:27.743Z,86.50
2022-09-05T13:14:54.319Z,86.00
2022-09-05T13:15:36.381Z,85.70
2022-09-05T13:18:13.680Z,86.30
2022-09-05T13:21:07.683Z,86.70
2022-09-05T13:23:58.242Z,85.90
2022-09-05T13:26:40.124Z,86.10
2022-09-05T13:29:19.679Z,87.80
2022-09-05T13:37:54.139Z,86.10
2022-09-05T13:38:12.953Z,86.30
2022-09-05T13:40:58.193Z,86.20
2022-09-05T13:43:38.408Z,86.20
2022-09-05T13:46:10.902Z,88.20
2022-09-05T13:51:53.945Z,87.30
2022-09-05T13:54:39.753Z,87.30
2022-09-05T13:57:42.407Z,87.80
2022-09-05T14:00:26.986Z,85.80
2022-09-05T14:03:38.380Z,86.10
2022-09-05T14:06:47.280Z,87.70
2022-09-05T14:09:49.290Z,86.90
2022-09-05T14:12:40.265Z,87.30
2022-09-05T14:15:41.099Z,87.20
2022-09-05T14:18:21.364Z,86.70
2022-09-05T14:21:17.087Z,87.10
2022-09-05T14:23:56.579Z,87.40
2022-09-05T14:26:32.998Z,86.70
2022-09-05T14:29:14.248Z,87.40
2022-09-05T14:37:34.774Z,87.30
2022-09-05T14:37:50.671Z,87.90
2022-09-05T14:39:04.098Z,89.30
2022-09-05T14:42:07.912Z,89.80
2022-09-05T14:44:41.561Z,89.70
2022-09-05T14:47:47.515Z,90.10
2022-09-05T14:51:07.613Z,89.60
2022-09-05T15:02:38.210Z,89.90
2022-09-05T15:02:43.611Z,90.30
2022-09-05T15:03:19.104Z,90.00
2022-09-05T15:05:50.497Z,90.70
2022-09-05T15:11:15.258Z,90.30
2022-09-05T15:12:18.264Z,90.30
2022-09-05T15:14:12.059Z,90.60
2022-09-05T15:16:45.667Z,90.30
2022-09-05T15:20:06.427Z,90.40
2022-09-05T15:22:42.108Z,90.20
2022-09-05T15:25:22.123Z,90.40
2022-09-05T15:27:50.678Z,90.80
2022-09-05T15:30:34.730Z,91.00
2022-09-05T15:33:28.382Z,90.70
2022-09-05T15:35:56.750Z,90.60
2022-09-05T15:38:54.879Z,90.90
2022-09-05T15:41:32.319Z,91.10
2022-09-05T15:44:09.294Z,91.50
2022-09-05T15:46:51.450Z,92.00
2022-09-05T15:49:48.679Z,91.60
2022-09-05T15:52:18.284Z,91.70
2022-09-05T15:55:23.303Z,92.00
2022-09-05T15:58:02.232Z,91.90
2022-09-05T16:00:51.640Z,92.20
2022-09-05T16:06:06.942Z,92.30
2022-09-05T16:10:37.976Z,92.50
2022-09-05T16:10:42.751Z,91.80
2022-09-05T16:12:18.750Z,91.50
2022-09-05T16:15:58.499Z,91.30
2022-09-05T16:23:17.587Z,91.50
2022-09-05T16:23:26.367Z,91.60
2022-09-05T16:23:47.859Z,91.70
2022-09-05T16:26:27.484Z,91.50
2022-09-05T16:29:12.867Z,91.80
2022-09-05T16:32:22.187Z,91.70
2022-09-05T16:34:54.226Z,92.00
2022-09-05T16:37:37.071Z,91.50
2022-09-05T16:40:14.684Z,91.20
2022-09-05T16:43:07.060Z,90.90
2022-09-05T16:46:07.278Z,91.40
2022-09-05T16:48:47.994Z,91.10
2022-09-05T16:51:42.768Z,91.50
2022-09-05T16:54:34.940Z,91.70
2022-09-05T16:57:17.847Z,91.80
2022-09-05T16:59:46.889Z,91.70
2022-09-05T17:02:51.323Z,91.80
2022-09-05T17:05:43.595Z,91.60
2022-09-05T17:08:29.697Z,91.90
2022-09-05T17:11:13.790Z,91.90
2022-09-05T17:14:04.608Z,92.00
2022-09-05T17:16:42.843Z,92.20
2022-09-05T17:20:06.130Z,92.20
2022-09-05T17:26:01.825Z,92.30
2022-09-05T17:29:25.251Z,92.60
2022-09-05T17:29:37.958Z,92.20
2022-09-05T17:31:57.691Z,92.40
2022-09-05T17:34:50.025Z,92.60
2022-09-05T17:37:44.213Z,92.80
2022-09-05T17:40:48.651Z,92.70
2022-09-05T17:43:38.761Z,92.70
2022-09-05T17:46:40.122Z,92.90
2022-09-05T17:49:19.393Z,92.90
2022-09-05T17:51:53.320Z,93.10
2022-09-05T17:54:33.591Z,93.20
2022-09-05T17:57:28.569Z,93.30
2022-09-05T18:00:09.423Z,93.40
2022-09-05T18:02:56.809Z,93.40
2022-09-05T18:06:03.940Z,93.70
2022-09-05T18:08:46.281Z,93.80
2022-09-05T18:11:25.110Z,94.00
2022-09-05T18:13:56.029Z,94.00
2022-09-05T18:16:55.021Z,94.20
2022-09-05T18:19:34.777Z,94.40
2022-09-05T18:22:25.340Z,94.50
2022-09-05T18:24:58.319Z,94.60
2022-09-05T18:28:08.412Z,94.70
2022-09-05T18:30:46.971Z,94.80
2022-09-05T18:36:34.525Z,94.90
2022-09-05T18:39:24.420Z,95.10
2022-09-05T18:42:25.628Z,95.10
2022-09-05T18:45:28.320Z,95.10
2022-09-05T18:48:07.296Z,95.40
2022-09-05T18:50:46.400Z,95.50
2022-09-05T18:53:25.733Z,95.60
2022-09-05T18:56:28.455Z,95.70
2022-09-05T18:59:30.638Z,95.80
2022-09-05T19:02:49.762Z,95.90
2022-09-05T19:05:19.809Z,96.00
2022-09-05T19:08:00.073Z,96.20
2022-09-05T19:10:34.703Z,96.20
2022-09-05T19:13:20.100Z,96.20
2022-09-05T19:16:43.413Z,96.30
2022-09-05T19:19:25.001Z,96.40
2022-09-05T19:22:49.950Z,96.60
2022-09-05T19:24:48.003Z,96.70
2022-09-05T19:29:10.472Z,96.80
2022-09-05T19:37:05.767Z,97.10
2022-09-05T19:37:09.250Z,97.00
2022-09-05T19:37:13.585Z,97.20
2022-09-05T19:42:03.137Z,97.30
2022-09-05T19:47:30.412Z,97.50
2022-09-05T19:47:33.799Z,97.80
2022-09-05T19:48:04.370Z,97.90
2022-09-05T19:50:31.286Z,98.00
2022-09-05T19:53:08.443Z,98.20
2022-09-05T19:55:38.789Z,98.40
2022-09-05T19:58:20.996Z,98.50
2022-09-05T20:01:04.853Z,98.40
2022-09-05T20:03:38.479Z,98.70
2022-09-05T20:06:30.301Z,98.80
2022-09-05T20:09:26.733Z,98.90
2022-09-05T20:11:58.180Z,98.80
2022-09-05T20:14:30.753Z,99.00
2022-09-05T20:17:18.712Z,99.20
2022-09-05T20:19:46.078Z,99.40
2022-09-05T20:22:47.627Z,99.60
2022-09-05T20:25:36.205Z,99.80
2022-09-05T20:28:16.312Z,99.60
2022-09-05T20:30:48.389Z,99.70
2022-09-05T20:33:26.862Z,99.80
2022-09-05T20:39:32.712Z,99.90
2022-09-05T20:43:15.640Z,99.90
2022-09-05T20:43:19.943Z,99.80
2022-09-05T20:44:41.911Z,99.90
2022-09-05T20:53:09.724Z,99.90
2022-09-05T20:54:19.754Z,99.90
2022-09-05T20:54:21.961Z,99.90
2022-09-05T20:56:23.043Z,99.90
2022-09-05T20:58:51.680Z,99.90
2022-09-05T21:01:23.334Z,99.90
2022-09-05T21:04:04.047Z,99.90
2022-09-05T21:06:37.036Z,99.90
2022-09-05T21:09:26.074Z,99.90
2022-09-05T21:11:59.015Z,99.90
2022-09-05T21:14:29.277Z,99.90
2022-09-05T21:17:15.707Z,99.90
2022-09-05T21:19:53.181Z,99.90
2022-09-05T21:22:21.084Z,99.90
2022-09-05T21:25:07.252Z,99.90
2022-09-05T21:27:37.388Z,99.90
2022-09-05T21:30:28.617Z,99.90
2022-09-05T21:33:14.549Z,99.90
2022-09-05T21:36:01.370Z,99.90
2022-09-05T21:38:37.351Z,99.90
2022-09-05T21:41:05.371Z,99.90
2022-09-05T21:47:37.938Z,99.90
2022-09-05T21:47:43.760Z,99.90
2022-09-05T21:49:09.369Z,99.90
2022-09-05T21:51:38.683Z,99.90
2022-09-05T21:59:16.739Z,99.90
2022-09-05T21:59:19.730Z,99.90
2022-09-05T21:59:57.685Z,99.90
2022-09-05T22:02:34.578Z,99.90
2022-09-05T22:05:03.594Z,99.90
2022-09-05T22:07:35.638Z,99.90
2022-09-05T22:10:05.792Z,99.90
2022-09-05T22:12:38.815Z,99.90
2022-09-05T22:15:28.088Z,99.90
2022-09-05T22:18:09.747Z,99.90
2022-09-05T22:20:47.056Z,99.90
2022-09-05T22:23:29.402Z,99.90
2022-09-05T22:25:56.635Z,99.90
2022-09-05T22:28:33.429Z,99.90
2022-09-05T22:31:07.638Z,99.90
2022-09-05T22:33:36.026Z,99.90
2022-09-05T22:36:03.896Z,99.90
2022-09-05T22:38:30.885Z,99.90
2022-09-05T22:40:57.843Z,99.90
2022-09-05T22:43:25.386Z,99.90
2022-09-05T22:45:59.206Z,99.90
2022-09-05T22:48:26.117Z,99.90
2022-09-05T22:50:52.994Z,99.90
2022-09-05T22:53:19.951Z,99.90
2022-09-05T22:55:54.843Z,99.90
2022-09-05T22:58:21.809Z,99.90
2022-09-05T23:00:49.843Z,99.90
2022-09-05T23:03:16.985Z,99.90
2022-09-05T23:05:44.305Z,99.90
2022-09-05T23:08:11.575Z,99.90
2022-09-05T23:10:38.875Z,99.90
2022-09-05T23:13:10.179Z,99.90
2022-09-05T23:15:38.506Z,99.90
2022-09-05T23:18:06.044Z,99.90
2022-09-05T23:20:34.163Z,99.90
2022-09-05T23:23:07.972Z,99.90
2022-09-05T23:25:36.305Z,99.90
2022-09-05T23:28:09.060Z,99.90
2022-09-05T23:30:39.980Z,99.90
2022-09-05T23:33:09.036Z,99.90
2022-09-05T23:35:36.889Z,99.90
2022-09-05T23:38:10.179Z,99.90
2022-09-05T23:40:38.641Z,99.90
2022-09-05T23:43:06.141Z,99.90
2022-09-05T23:45:33.368Z,99.90
2022-09-05T23:48:00.889Z,99.90
2022-09-05T23:50:28.693Z,99.90
2022-09-05T23:52:55.617Z,99.90
2022-09-05T23:55:23.418Z,99.90
2022-09-05T23:57:57.227Z,99.90
